Time,TemperatureF,DewpointF,PressureIn,WindDirection,WindDirectionDegrees,WindSpeedMPH,WindSpeedGustMPH,Humidity,HourlyPrecipIn,Conditions,Clouds,dailyrainin,SoftwareType,DateUTC
2013-08-19 02:43:00,61.0,36.0,29.96,South,189,2.0,2.0,39,0.00,,,0.00,,2013-08-19 09:43:00,
2013-08-19 02:53:00,61.0,35.0,29.96,SSW,199,2.0,3.0,38,0.00,,,0.00,,2013-08-19 09:53:00,
2013-08-19 03:22:00,61.0,35.0,29.96,SSE,158,2.0,2.0,37,0.00,,,0.00,,2013-08-19 10:22:00,
2013-08-19 03:42:00,58.0,33.0,29.96,SSE,158,4.0,5.0,39,0.00,,,0.00,,2013-08-19 10:42:00,
2013-08-19 03:52:00,57.0,33.0,29.96,SSE,158,3.0,5.0,40,0.00,,,0.00,,2013-08-19 10:52:00,
2013-08-19 04:21:00,58.0,34.0,29.96,NNE,22,2.0,3.0,40,0.00,,,0.00,,2013-08-19 11:21:00,
2013-08-19 06:22:00,55.0,33.0,29.96,South,177,1.0,2.0,44,0.00,,,0.00,,2013-08-19 13:22:00,
2013-08-19 06:42:00,56.0,35.0,29.96,ESE,121,2.0,3.0,45,0.00,,,0.00,,2013-08-19 13:42:00,
2013-08-19 06:52:00,56.0,34.0,29.96,SE,126,2.0,3.0,44,0.00,,,0.00,,2013-08-19 13:52:00,
2013-08-19 07:21:00,60.0,39.0,29.96,West,275,2.0,3.0,46,0.00,,,0.00,,2013-08-19 14:21:00,
2013-08-19 07:42:00,63.0,38.0,29.96,ESE,122,2.0,2.0,40,0.00,,,0.00,,2013-08-19 14:42:00,
2013-08-19 07:52:00,63.0,37.0,29.96,SSE,158,3.0,3.0,38,0.00,,,0.00,,2013-08-19 14:52:00,
2013-08-19 08:11:00,65.0,38.0,29.96,SSE,147,2.0,5.0,37,0.00,,,0.00,,2013-08-19 15:11:00,
2013-08-19 08:22:00,66.0,38.0,29.96,South,186,3.0,6.0,35,0.00,,,0.00,,2013-08-19 15:22:00,
2013-08-19 08:44:00,69.0,39.0,29.96,SE,141,4.0,8.0,33,0.00,,,0.00,,2013-08-19 15:44:00,
2013-08-19 08:54:00,70.0,40.0,29.96,SE,125,5.0,7.0,33,0.00,,,0.00,,2013-08-19 15:54:00,
2013-08-19 09:23:00,74.0,41.0,29.99,South,178,3.0,5.0,31,0.00,,,0.00,,2013-08-19 16:23:00,
2013-08-19 10:12:00,74.0,39.0,29.99,NNW,330,4.0,8.0,28,0.00,,,0.00,,2013-08-19 17:12:00,
2013-08-19 10:30:00,74.0,-99.9,29.99,NW,310,6.0,9.0,28,0.00,,,0.00,,2013-08-19 17:30:00,
2013-08-19 10:49:00,74.0,38.0,29.99,NW,314,7.0,10.0,27,0.00,,,0.00,,2013-08-19 17:49:00,
2013-08-19 10:57:00,75.0,39.0,29.99,NNW,338,7.0,10.0,27,0.00,,,0.00,,2013-08-19 17:57:00,
2013-08-19 11:19:00,76.0,39.0,29.96,WNW,292,5.0,8.0,26,0.00,,,0.00,,2013-08-19 18:19:00,
2013-08-19 11:28:00,76.0,39.0,29.96,NW,319,6.0,8.0,26,0.00,,,0.00,,2013-08-19 18:28:00,
2013-08-19 11:50:00,-999.0,-99.9,29.96,NW,314,5.0,9.0,25,0.00,,,0.00,,2013-08-19 18:50:00,
2013-08-19 12:00:00,-999.0,-99.9,29.96,WNW,303,4.0,7.0,25,0.00,,,0.00,,2013-08-19 19:00:00,
2013-08-19 12:16:00,79.0,39.0,29.96,NW,308,5.0,10.0,24,0.00,,,0.00,,2013-08-19 19:16:00,
2013-08-19 12:30:00,-999.0,-99.9,29.96,NW,323,6.0,8.0,23,0.00,,,0.00,,2013-08-19 19:30:00,
2013-08-19 12:50:00,81.0,40.0,29.96,WNW,287,6.0,9.0,23,0.00,,,0.00,,2013-08-19 19:50:00,
2013-08-19 12:59:00,81.0,39.0,29.96,NNW,330,7.0,9.0,22,0.00,,,0.00,,2013-08-19 19:59:00,
2013-08-19 13:20:00,82.0,39.0,29.96,NNW,342,4.0,8.0,22,0.00,,,0.00,,2013-08-19 20:20:00,
2013-08-19 13:30:00,83.0,39.0,29.96,WNW,302,5.0,8.0,21,0.00,,,0.00,,2013-08-19 20:30:00,
2013-08-19 13:50:00,83.0,39.0,29.93,NW,311,6.0,13.0,21,0.00,,,0.00,,2013-08-19 20:50:00,
2013-08-19 14:00:00,-999.0,-99.9,29.93,SSW,200,5.0,9.0,-999,-99.99,,,-99.99,,2013-08-19 21:00:00,
2013-08-19 14:16:00,84.0,39.0,29.93,NW,320,6.0,9.0,20,0.00,,,0.00,,2013-08-19 21:16:00,
2013-08-19 14:25:00,84.0,39.0,29.93,NW,323,7.0,13.0,20,0.00,,,0.00,,2013-08-19 21:25:00,
2013-08-19 14:45:00,84.0,39.0,29.93,WNW,292,6.0,13.0,20,0.00,,,0.00,,2013-08-19 21:45:00,
2013-08-19 14:54:00,85.0,39.0,29.93,WNW,292,7.0,10.0,20,0.00,,,0.00,,2013-08-19 21:54:00,
2013-08-19 15:25:00,87.0,40.0,29.93,NW,308,6.0,10.0,19,0.00,,,0.00,,2013-08-19 22:25:00,
2013-08-19 15:44:00,86.0,39.0,29.90,West,263,4.0,9.0,19,0.00,,,0.00,,2013-08-19 22:44:00,
2013-08-19 15:54:00,87.0,40.0,29.90,WNW,302,3.0,10.0,19,0.00,,,0.00,,2013-08-19 22:54:00,
2013-08-19 16:15:00,87.0,40.0,29.90,WNW,301,6.0,9.0,19,0.00,,,0.00,,2013-08-19 23:15:00,
2013-08-19 16:25:00,87.0,40.0,29.90,NW,305,6.0,12.0,19,0.00,,,0.00,,2013-08-19 23:25:00,
2013-08-19 16:48:00,87.0,40.0,29.90,WNW,303,6.0,9.0,19,0.00,,,0.00,,2013-08-19 23:48:00,
2013-08-19 16:55:00,87.0,40.0,29.90,West,281,3.0,9.0,19,0.00,,,0.00,,2013-08-19 23:55:00,
2013-08-19 17:11:00,85.0,39.0,29.90,NNW,332,9.0,14.0,20,0.00,,,0.00,,2013-08-20 00:11:00,
2013-08-19 17:23:00,85.0,39.0,29.90,NNW,328,8.0,15.0,20,0.00,,,0.00,,2013-08-20 00:23:00,
2013-08-19 17:41:00,83.0,39.0,29.90,NW,309,7.0,14.0,21,0.00,,,0.00,,2013-08-20 00:41:00,
2013-08-19 17:52:00,83.0,39.0,29.90,NW,313,6.0,14.0,21,0.00,,,0.00,,2013-08-20 00:52:00,
2013-08-19 18:11:00,82.0,39.0,29.90,NNW,338,9.0,13.0,22,0.00,,,0.00,,2013-08-20 01:11:00,
2013-08-19 18:22:00,80.0,39.0,29.90,NNW,330,10.0,14.0,23,0.00,,,0.00,,2013-08-20 01:22:00,
2013-08-19 18:52:00,79.0,39.0,29.90,NNW,332,7.0,14.0,24,0.00,,,0.00,,2013-08-20 01:52:00,
2013-08-19 19:11:00,77.0,38.0,29.87,NNW,343,10.0,13.0,25,0.00,,,0.00,,2013-08-20 02:11:00,
2013-08-19 19:21:00,76.0,39.0,29.87,NW,323,6.0,10.0,26,0.00,,,0.00,,2013-08-20 02:21:00,
2013-08-19 19:52:00,74.0,40.0,29.90,NNW,338,6.0,9.0,29,0.00,,,0.00,,2013-08-20 02:52:00,
2013-08-19 20:11:00,72.0,41.0,29.90,NW,326,4.0,9.0,32,0.00,,,0.00,,2013-08-20 03:11:00,
2013-08-19 20:22:00,71.0,40.0,29.90,NNW,329,4.0,6.0,33,0.00,,,0.00,,2013-08-20 03:22:00,
2013-08-19 20:43:00,70.0,40.0,29.90,NNW,342,5.0,6.0,34,0.00,,,0.00,,2013-08-20 03:43:00,
2013-08-19 20:53:00,69.0,40.0,29.90,NNW,331,5.0,6.0,35,0.00,,,0.00,,2013-08-20 03:53:00,
2013-08-19 21:13:00,68.0,40.0,29.93,NNW,338,4.0,6.0,36,0.00,,,0.00,,2013-08-20 04:13:00,
2013-08-19 21:23:00,67.0,40.0,29.93,NNW,332,3.0,5.0,37,0.00,,,0.00,,2013-08-20 04:23:00,
2013-08-19 21:53:00,65.0,39.0,29.93,WNW,292,0.0,2.0,38,0.00,,,0.00,,2013-08-20 04:53:00,